Time;durP1;ratioP1;P1;durP2;ratioP2;P2;SDS_P1;SDS_P2;PMS_P1;PMS_P2;Temp;Humidity;BMP_temperature;BMP_pressure;BME280_temperature;BME280_humidity;BME280_pressure;Samples;Min_cycle;Max_cycle;Signal;HPM_P1;HPM_P2
2021/04/18 00:01:38;;;;;;;2.67;1.70;;;10.00;50.30;;;;;;5061835;28;20169;-81
2021/04/18 00:04:05;;;;;;;2.85;2.08;;;10.00;50.20;;;;;;5026716;28;20195;-81
2021/04/18 00:06:36;;;;;;;2.53;1.70;;;9.90;51.20;;;;;;5064220;28;20226;-82
2021/04/18 00:09:07;;;;;;;4.85;2.30;;;9.90;51.40;;;;;;5050965;28;20176;-81
2021/04/18 00:11:37;;;;;;;3.58;1.67;;;9.90;51.50;;;;;;5069888;28;20172;-82
2021/04/18 00:14:09;;;;;;;3.10;1.42;;;9.80;51.30;;;;;;5054339;28;20178;-81
2021/04/18 00:16:38;;;;;;;3.60;1.92;;;9.80;51.40;;;;;;5063555;28;20200;-82
2021/04/18 00:19:10;;;;;;;6.90;1.65;;;9.80;51.50;;;;;;5029403;28;20255;-81
2021/04/18 00:21:39;;;;;;;3.72;2.00;;;9.70;51.60;;;;;;5067497;28;20524;-81
2021/04/18 00:24:05;;;;;;;2.75;1.40;;;9.70;51.60;;;;;;5055294;28;20532;-82
2021/04/18 00:26:32;;;;;;;2.00;1.40;;;9.60;51.70;;;;;;5071999;28;20202;-82
2021/04/18 00:29:21;;;;;;;3.20;1.20;;;9.60;51.70;;;;;;5074436;28;20175;-81
2021/04/18 00:31:59;;;;;;;3.40;1.67;;;9.60;51.70;;;;;;5088268;28;20164;-81
2021/04/18 00:34:30;;;;;;;2.88;1.92;;;9.60;51.80;;;;;;5070906;28;20212;-82
2021/04/18 00:36:56;;;;;;;2.80;1.40;;;9.60;52.10;;;;;;5070695;28;20215;-81
2021/04/18 00:39:35;;;;;;;2.28;1.30;;;9.60;52.10;;;;;;5071142;28;20176;-81
2021/04/18 00:42:09;;;;;;;4.25;1.33;;;9.60;52.20;;;;;;5061451;28;20196;-81
2021/04/18 00:44:35;;;;;;;2.85;1.30;;;9.60;52.50;;;;;;5052391;28;20188;-82
2021/04/18 00:47:02;;;;;;;3.93;1.60;;;9.60;52.60;;;;;;5076687;28;20581;-80
2021/04/18 00:49:33;;;;;;;2.45;1.30;;;9.60;52.60;;;;;;5066958;28;20575;-81
2021/04/18 00:51:59;;;;;;;4.13;1.50;;;9.60;52.80;;;;;;5067063;28;20218;-80
2021/04/18 00:54:30;;;;;;;3.30;1.55;;;9.60;52.90;;;;;;5070190;28;20196;-80
2021/04/18 00:56:59;;;;;;;4.90;1.50;;;9.60;53.10;;;;;;5087996;28;20192;-81
2021/04/18 00:59:28;;;;;;;3.80;1.45;;;9.60;53.20;;;;;;5052719;28;20160;-81
2021/04/18 01:01:59;;;;;;;2.45;2.00;;;9.70;53.30;;;;;;5090162;28;20168;-80
2021/04/18 01:04:30;;;;;;;1.73;1.35;;;9.70;53.30;;;;;;5089454;28;20184;-81
2021/04/18 01:06:56;;;;;;;2.10;1.30;;;9.70;53.30;;;;;;5090927;28;20175;-80
2021/04/18 01:09:25;;;;;;;3.42;1.45;;;9.70;53.20;;;;;;5045694;28;20172;-81
2021/04/18 01:11:51;;;;;;;3.80;1.50;;;9.70;53.40;;;;;;5078795;28;20855;-80
2021/04/18 01:14:17;;;;;;;3.20;1.70;;;9.70;53.40;;;;;;5066655;28;20207;-79
2021/04/18 01:16:45;;;;;;;2.67;1.60;;;9.70;53.60;;;;;;5085584;28;20621;-81
2021/04/18 01:19:12;;;;;;;3.45;1.95;;;9.80;53.80;;;;;;5072611;28;20176;-80
2021/04/18 01:21:39;;;;;;;6.28;2.55;;;9.80;54.00;;;;;;5071729;28;20177;-81
2021/04/18 01:24:17;;;;;;;6.20;1.92;;;9.80;54.20;;;;;;5064322;28;20280;-81
2021/04/18 01:27:05;;;;;;;3.08;1.63;;;9.90;54.10;;;;;;5068333;28;20248;-80
2021/04/18 01:29:34;;;;;;;4.50;1.70;;;9.90;54.20;;;;;;5066026;28;20202;-80
2021/04/18 01:31:59;;;;;;;2.00;1.60;;;10.00;53.60;;;;;;5082455;28;20202;-81
2021/04/18 01:34:29;;;;;;;2.17;1.63;;;10.00;53.70;;;;;;5065046;28;20604;-80
2021/04/18 01:36:55;;;;;;;3.53;2.08;;;10.00;53.80;;;;;;5081590;28;20211;-79
2021/04/18 01:39:23;;;;;;;3.50;2.00;;;10.10;53.80;;;;;;5098713;28;20181;-81
2021/04/18 01:41:52;;;;;;;3.45;1.90;;;10.10;54.00;;;;;;5080545;28;20164;-80
2021/04/18 01:44:18;;;;;;;4.05;1.70;;;10.20;54.00;;;;;;5064721;28;20180;-80
2021/04/18 01:46:45;;;;;;;5.97;1.80;;;10.20;54.00;;;;;;5064594;28;20202;-79
2021/04/18 01:49:12;;;;;;;3.67;2.45;;;10.20;54.20;;;;;;5081515;28;20582;-80
2021/04/18 01:51:40;;;;;;;3.45;2.05;;;10.30;54.30;;;;;;5098566;28;20168;-80
2021/04/18 01:54:09;;;;;;;4.93;2.10;;;10.30;54.60;;;;;;5077704;28;20164;-79
2021/04/18 01:56:38;;;;;;;3.38;2.05;;;10.30;54.70;;;;;;5076606;28;20227;-82
2021/04/18 01:59:05;;;;;;;3.80;2.25;;;10.30;54.60;;;;;;5093940;28;20148;-81
2021/04/18 02:01:40;;;;;;;4.10;2.05;;;10.40;54.60;;;;;;5093723;28;20625;-81
2021/04/18 02:04:21;;;;;;;4.03;2.20;;;10.40;55.00;;;;;;5058959;28;20168;-81
2021/04/18 02:06:51;;;;;;;7.45;2.25;;;10.40;55.30;;;;;;5075573;28;20198;-81
2021/04/18 02:09:17;;;;;;;3.67;1.97;;;10.50;55.20;;;;;;5075425;28;20244;-81
2021/04/18 02:11:44;;;;;;;3.10;2.28;;;10.50;55.20;;;;;;5063371;28;20650;-81
2021/04/18 02:14:16;;;;;;;6.15;2.17;;;10.50;55.30;;;;;;5070957;28;20200;-81
2021/04/18 02:16:57;;;;;;;3.85;2.15;;;10.50;55.40;;;;;;5072374;28;20207;-81
2021/04/18 02:19:32;;;;;;;3.20;1.83;;;10.50;55.30;;;;;;5081995;28;20206;-81
2021/04/18 02:21:59;;;;;;;3.03;1.60;;;10.60;55.50;;;;;;5080558;28;20167;-81
2021/04/18 02:24:30;;;;;;;2.20;1.50;;;10.60;55.60;;;;;;5080541;28;20206;-81
2021/04/18 02:27:03;;;;;;;3.63;1.80;;;10.60;55.70;;;;;;5080291;28;20175;-81
2021/04/18 02:29:37;;;;;;;3.17;1.92;;;10.60;55.80;;;;;;5079570;28;20172;-81
2021/04/18 02:32:10;;;;;;;3.45;1.70;;;10.60;55.80;;;;;;5062469;28;20177;-81
2021/04/18 02:34:44;;;;;;;4.15;1.85;;;10.60;55.80;;;;;;5077842;28;20187;-81
2021/04/18 02:37:09;;;;;;;3.97;1.87;;;10.60;55.80;;;;;;5095506;28;20210;-81
2021/04/18 02:39:38;;;;;;;4.75;2.70;;;10.60;55.90;;;;;;5061048;28;20627;-81
2021/04/18 02:42:10;;;;;;;4.03;1.98;;;10.60;56.10;;;;;;5079994;28;20170;-82
2021/04/18 02:44:36;;;;;;;5.22;2.90;;;10.60;56.20;;;;;;5095903;28;20226;-82
2021/04/18 02:47:03;;;;;;;6.50;3.17;;;10.60;57.00;;;;;;5078629;28;20180;-80
2021/04/18 02:49:31;;;;;;;4.55;2.60;;;10.60;56.50;;;;;;5070005;28;20176;-81
2021/04/18 02:51:58;;;;;;;5.18;2.70;;;10.60;56.20;;;;;;5063044;28;20168;-81
2021/04/18 02:54:24;;;;;;;3.08;2.22;;;10.60;56.30;;;;;;5051654;28;20271;-81
2021/04/18 02:56:55;;;;;;;5.70;3.00;;;10.60;56.30;;;;;;5083770;28;20208;-81
2021/04/18 02:59:21;;;;;;;3.38;2.42;;;10.50;56.40;;;;;;5060361;28;20165;-80
2021/04/18 03:01:50;;;;;;;4.60;2.70;;;10.50;56.70;;;;;;5046073;28;20203;-81
2021/04/18 03:04:18;;;;;;;5.07;2.45;;;10.50;56.60;;;;;;5062829;28;20598;-81
2021/04/18 03:06:48;;;;;;;6.25;2.88;;;10.50;57.10;;;;;;5046653;28;20175;-81
2021/04/18 03:09:13;;;;;;;4.57;2.00;;;10.50;57.00;;;;;;5053708;28;20173;-81
2021/04/18 03:11:47;;;;;;;4.50;3.00;;;10.50;56.90;;;;;;5076712;28;20168;-81
2021/04/18 03:14:22;;;;;;;4.30;3.08;;;10.50;57.10;;;;;;5059809;28;20196;-81
2021/04/18 03:16:48;;;;;;;4.22;2.60;;;10.50;57.10;;;;;;5075290;28;20486;-80
2021/04/18 03:19:14;;;;;;;3.88;2.55;;;10.40;57.00;;;;;;5076964;28;20173;-81
2021/04/18 03:21:47;;;;;;;4.10;2.83;;;10.40;57.00;;;;;;5059277;28;20230;-81
2021/04/18 03:24:16;;;;;;;6.13;3.60;;;10.40;57.10;;;;;;5055379;28;20196;-82
2021/04/18 03:26:46;;;;;;;4.85;3.58;;;10.40;57.30;;;;;;5075357;28;20164;-81
2021/04/18 03:29:12;;;;;;;7.95;4.07;;;10.40;57.30;;;;;;5063275;28;20185;-81
2021/04/18 03:31:38;;;;;;;4.30;3.45;;;10.40;57.30;;;;;;5084840;28;20191;-81
2021/04/18 03:34:10;;;;;;;3.97;3.63;;;10.40;57.70;;;;;;5062061;28;20209;-81
2021/04/18 03:36:37;;;;;;;7.85;4.47;;;10.40;57.80;;;;;;5064925;28;20222;-81
2021/04/18 03:39:12;;;;;;;6.75;4.53;;;10.40;58.00;;;;;;5074151;28;20195;-81
2021/04/18 03:41:39;;;;;;;4.70;4.13;;;10.40;58.10;;;;;;5059255;28;20153;-81
2021/04/18 03:44:06;;;;;;;5.90;4.65;;;10.40;58.10;;;;;;5042945;28;20236;-81
2021/04/18 03:46:33;;;;;;;7.57;4.30;;;10.40;58.30;;;;;;5058171;28;20176;-80
2021/04/18 03:49:00;;;;;;;5.45;4.25;;;10.40;58.50;;;;;;5057381;28;20168;-81
2021/04/18 03:51:27;;;;;;;6.03;4.82;;;10.50;58.70;;;;;;5046015;28;20175;-81
2021/04/18 03:53:58;;;;;;;4.30;3.30;;;10.50;58.60;;;;;;5044549;28;20593;-81
2021/04/18 03:56:28;;;;;;;4.80;4.30;;;10.50;58.80;;;;;;5074550;23;20577;-78
2021/04/18 03:58:57;;;;;;;5.45;4.00;;;10.50;59.60;;;;;;5060565;28;20176;-78
2021/04/18 04:01:24;;;;;;;5.10;3.88;;;10.50;59.20;;;;;;5054850;28;20210;-78
2021/04/18 04:03:51;;;;;;;7.82;4.88;;;10.50;59.20;;;;;;5063563;28;20176;-78
2021/04/18 04:06:19;;;;;;;6.43;4.28;;;10.50;59.40;;;;;;5079850;28;20200;-78
2021/04/18 04:08:51;;;;;;;5.63;3.53;;;10.50;59.50;;;;;;5034097;28;20268;-78
2021/04/18 04:11:21;;;;;;;4.07;3.65;;;10.50;59.60;;;;;;5034230;28;20208;-78
2021/04/18 04:13:48;;;;;;;5.63;4.20;;;10.50;59.70;;;;;;5034434;28;20223;-78
2021/04/18 04:16:17;;;;;;;7.65;4.78;;;10.50;59.90;;;;;;5033878;28;20243;-78
2021/04/18 04:18:44;;;;;;;6.18;3.80;;;10.50;60.60;;;;;;5034166;28;20699;-77
2021/04/18 04:21:37;;;;;;;4.10;3.50;;;10.50;59.90;;;;;;5033607;28;20535;-78
2021/04/18 04:24:25;;;;;;;5.68;3.15;;;10.50;60.10;;;;;;5033614;28;20166;-78
2021/04/18 04:26:51;;;;;;;12.43;3.33;;;10.50;60.30;;;;;;5032806;28;20763;-78
2021/04/18 04:29:17;;;;;;;5.03;3.20;;;10.40;60.40;;;;;;5055417;28;20246;-78
2021/04/18 04:31:43;;;;;;;5.20;3.07;;;10.40;60.90;;;;;;5021000;28;20656;-78
2021/04/18 04:34:08;;;;;;;4.70;2.73;;;10.30;61.10;;;;;;5055134;28;20602;-78
2021/04/18 04:36:34;;;;;;;6.80;3.03;;;10.30;61.30;;;;;;5036781;28;20240;-77
2021/04/18 04:39:00;;;;;;;3.23;2.63;;;10.30;61.10;;;;;;5055255;28;20238;-78
2021/04/18 04:41:26;;;;;;;4.60;1.90;;;10.20;61.30;;;;;;5056449;28;20659;-78
2021/04/18 04:43:52;;;;;;;3.27;2.30;;;10.20;62.00;;;;;;5060649;28;20196;-78
2021/04/18 04:46:18;;;;;;;3.87;2.73;;;10.10;61.70;;;;;;5054703;28;20189;-77
2021/04/18 04:48:43;;;;;;;5.27;3.00;;;10.10;62.20;;;;;;5037448;28;20169;-79
2021/04/18 04:51:09;;;;;;;4.60;3.27;;;10.10;62.40;;;;;;5037561;28;20539;-79
2021/04/18 04:53:35;;;;;;;4.83;2.87;;;10.00;62.70;;;;;;5046396;28;20241;-80
2021/04/18 04:56:00;;;;;;;7.90;2.37;;;10.00;62.40;;;;;;5055888;28;20291;-78
2021/04/18 04:58:26;;;;;;;4.97;2.87;;;10.00;62.60;;;;;;5055033;28;20176;-77
2021/04/18 05:00:55;;;;;;;3.37;3.00;;;9.90;64.00;;;;;;5055327;28;21119;-77
2021/04/18 05:03:25;;;;;;;8.25;2.95;;;9.90;64.20;;;;;;5055867;28;20177;-77
2021/04/18 05:05:52;;;;;;;4.75;3.25;;;9.90;64.60;;;;;;5036953;28;20177;-77
2021/04/18 05:08:18;;;;;;;5.72;3.13;;;9.90;64.80;;;;;;5055204;28;20767;-77
2021/04/18 05:10:44;;;;;;;5.10;3.90;;;9.90;64.80;;;;;;5053121;28;20174;-76
2021/04/18 05:13:10;;;;;;;5.17;4.03;;;9.80;65.20;;;;;;5071285;28;20266;-76
2021/04/18 05:15:35;;;;;;;8.33;3.33;;;9.80;65.30;;;;;;5037293;28;20177;-76
2021/04/18 05:18:03;;;;;;;7.60;3.53;;;9.80;65.40;;;;;;5058530;28;20295;-77
2021/04/18 05:20:28;;;;;;;3.60;3.30;;;9.80;65.70;;;;;;5049308;28;20192;-77
2021/04/18 05:22:54;;;;;;;9.93;4.37;;;9.80;65.70;;;;;;5054456;28;20530;-76
2021/04/18 05:25:20;;;;;;;9.63;4.10;;;9.70;65.60;;;;;;5054367;28;20264;-76
2021/04/18 05:27:46;;;;;;;3.63;3.07;;;9.70;65.90;;;;;;5036343;28;20201;-78
2021/04/18 05:30:12;;;;;;;3.80;3.28;;;9.70;66.20;;;;;;5036607;28;20230;-77
2021/04/18 05:32:39;;;;;;;3.25;2.50;;;9.70;66.60;;;;;;5054213;28;20532;-78
2021/04/18 05:35:05;;;;;;;3.58;3.28;;;9.70;67.60;;;;;;5054368;28;20172;-79
2021/04/18 05:37:31;;;;;;;7.68;4.38;;;9.60;66.90;;;;;;5036258;28;20207;-79
2021/04/18 05:39:57;;;;;;;5.63;3.97;;;9.60;67.10;;;;;;5034616;28;20169;-79
2021/04/18 05:42:22;;;;;;;5.30;4.43;;;9.60;67.30;;;;;;5054018;28;20575;-78
2021/04/18 05:44:48;;;;;;;5.00;4.10;;;9.60;67.50;;;;;;5035985;28;20189;-78
2021/04/18 05:47:14;;;;;;;6.57;3.83;;;9.50;67.70;;;;;;5035390;28;20205;-78
2021/04/18 05:49:40;;;;;;;6.00;3.70;;;9.60;68.30;;;;;;5053076;28;20538;-78
2021/04/18 05:52:06;;;;;;;7.23;4.73;;;9.50;68.50;;;;;;5018681;28;20191;-78
2021/04/18 05:54:32;;;;;;;8.27;5.15;;;9.60;68.60;;;;;;5035626;28;20195;-78
2021/04/18 05:56:58;;;;;;;7.47;4.80;;;9.60;68.80;;;;;;5038592;28;20275;-78
2021/04/18 05:59:24;;;;;;;6.30;5.20;;;9.60;68.90;;;;;;5053601;28;20173;-78
2021/04/18 06:01:50;;;;;;;7.10;4.87;;;9.60;69.10;;;;;;5035788;28;21134;-78
2021/04/18 06:04:15;;;;;;;6.97;4.03;;;9.60;69.30;;;;;;5052957;28;20673;-79
2021/04/18 06:06:41;;;;;;;7.57;4.70;;;9.60;69.60;;;;;;5052527;28;20303;-79
2021/04/18 06:09:07;;;;;;;5.30;3.80;;;9.60;69.80;;;;;;5034966;28;21207;-78
2021/04/18 06:11:33;;;;;;;7.53;4.40;;;9.70;70.00;;;;;;5052559;28;20169;-78
2021/04/18 06:13:58;;;;;;;5.73;4.50;;;9.70;70.10;;;;;;5035305;28;20268;-78
2021/04/18 06:16:24;;;;;;;7.00;4.90;;;9.70;70.20;;;;;;5052311;28;20637;-79
2021/04/18 06:18:50;;;;;;;7.27;4.27;;;9.70;70.30;;;;;;5035019;28;20246;-79
2021/04/18 06:21:16;;;;;;;8.13;4.93;;;9.80;70.70;;;;;;5052607;28;20580;-78
2021/04/18 06:23:42;;;;;;;7.93;4.78;;;9.80;70.70;;;;;;5052550;28;20609;-78
2021/04/18 06:26:08;;;;;;;8.63;6.03;;;9.80;71.00;;;;;;5058889;28;20176;-78
2021/04/18 06:28:34;;;;;;;5.57;4.10;;;9.80;71.30;;;;;;5055616;28;20177;-78
2021/04/18 06:31:00;;;;;;;5.72;4.90;;;9.80;71.20;;;;;;5031489;28;20200;-78
2021/04/18 06:33:25;;;;;;;5.80;5.20;;;9.90;71.40;;;;;;5055984;28;20247;-78
2021/04/18 06:35:51;;;;;;;7.50;5.00;;;9.90;72.10;;;;;;5056462;28;20648;-78
2021/04/18 06:38:17;;;;;;;6.87;4.87;;;9.90;71.90;;;;;;5060920;28;20582;-78
2021/04/18 06:40:43;;;;;;;8.37;4.83;;;10.00;71.10;;;;;;5032669;28;20919;-79
2021/04/18 06:43:11;;;;;;;6.90;5.27;;;10.00;72.20;;;;;;5034723;28;20173;-78
2021/04/18 06:45:37;;;;;;;7.03;4.82;;;10.00;71.60;;;;;;5034297;28;20256;-78
2021/04/18 06:48:04;;;;;;;7.35;5.10;;;10.10;71.70;;;;;;5054165;28;20216;-78
2021/04/18 06:50:31;;;;;;;6.28;5.00;;;10.10;72.00;;;;;;5062689;28;20169;-79
2021/04/18 06:52:57;;;;;;;6.50;5.65;;;10.20;72.20;;;;;;5046917;28;20165;-79
2021/04/18 06:55:25;;;;;;;9.68;5.20;;;10.20;72.30;;;;;;5070010;28;20183;-79
2021/04/18 06:57:52;;;;;;;10.80;5.82;;;10.30;73.00;;;;;;5054365;28;20208;-79
2021/04/18 07:00:18;;;;;;;8.13;5.30;;;10.60;74.10;;;;;;5038410;28;20227;-80
2021/04/18 07:02:44;;;;;;;8.68;6.45;;;10.80;74.70;;;;;;5053625;28;20157;-79
2021/04/18 07:05:13;;;;;;;8.50;5.90;;;11.00;74.60;;;;;;5052681;28;20176;-79
2021/04/18 07:07:44;;;;;;;8.25;5.13;;;11.20;74.70;;;;;;5031966;28;20212;-79
2021/04/18 07:10:27;;;;;;;7.28;5.55;;;11.30;74.50;;;;;;5053063;28;20161;-79
2021/04/18 07:12:53;;;;;;;8.18;6.05;;;11.50;74.30;;;;;;5051652;28;20509;-79
2021/04/18 07:15:42;;;;;;;6.18;5.10;;;11.70;74.30;;;;;;5033500;28;20188;-79
2021/04/18 07:18:12;;;;;;;7.53;5.28;;;11.80;74.20;;;;;;5051162;28;20200;-79
2021/04/18 07:20:52;;;;;;;8.13;5.30;;;12.00;74.10;;;;;;5051334;28;20188;-79
2021/04/18 07:23:31;;;;;;;8.48;5.68;;;12.10;74.20;;;;;;5034201;28;20219;-79
2021/04/18 07:25:57;;;;;;;12.43;5.72;;;12.30;74.20;;;;;;5034072;28;20207;-79
2021/04/18 07:28:26;;;;;;;6.43;5.03;;;12.40;74.20;;;;;;5051532;28;20313;-79
2021/04/18 07:30:55;;;;;;;9.07;5.85;;;12.60;74.00;;;;;;5052259;28;20284;-79
2021/04/18 07:33:21;;;;;;;7.40;6.70;;;12.60;73.50;;;;;;5052104;28;20165;-79
2021/04/18 07:35:49;;;;;;;8.93;6.82;;;12.60;73.00;;;;;;5033976;28;20622;-79
2021/04/18 07:38:29;;;;;;;5.38;4.43;;;12.60;72.80;;;;;;5033515;28;20181;-79
2021/04/18 07:41:17;;;;;;;10.35;5.88;;;12.50;73.40;;;;;;5051751;28;20671;-78
2021/04/18 07:43:44;;;;;;;7.00;5.15;;;12.50;73.50;;;;;;5051842;28;20173;-78
2021/04/18 07:46:10;;;;;;;7.18;5.15;;;12.60;73.40;;;;;;5034065;28;20193;-78
2021/04/18 07:48:37;;;;;;;10.52;8.13;;;12.60;73.60;;;;;;5055008;28;20704;-78
2021/04/18 07:51:03;;;;;;;7.10;5.68;;;12.70;76.50;;;;;;5051847;28;20168;-78
2021/04/18 07:53:29;;;;;;;9.85;6.57;;;12.90;75.90;;;;;;5051548;28;20161;-78
2021/04/18 07:55:55;;;;;;;11.40;6.60;;;13.10;76.00;;;;;;5033516;28;20184;-78
2021/04/18 07:58:21;;;;;;;9.80;8.10;;;13.50;76.70;;;;;;5049889;28;20720;-78
2021/04/18 08:00:47;;;;;;;10.70;7.60;;;13.80;76.30;;;;;;5050670;28;20176;-78
2021/04/18 08:03:14;;;;;;;11.82;7.30;;;14.20;76.30;;;;;;5040204;28;21074;-78
2021/04/18 08:05:40;;;;;;;9.50;5.70;;;14.60;76.20;;;;;;5052058;28;20176;-78
2021/04/18 08:08:12;;;;;;;11.23;7.90;;;15.50;78.70;;;;;;5050200;28;20745;-79
2021/04/18 08:10:43;;;;;;;9.90;6.83;;;16.30;73.50;;;;;;5051516;28;20180;-79
2021/04/18 08:13:20;;;;;;;9.67;6.23;;;16.90;74.50;;;;;;5059593;28;20607;-79
2021/04/18 08:15:58;;;;;;;7.63;5.90;;;17.70;74.80;;;;;;5014267;28;20571;-79
2021/04/18 08:18:36;;;;;;;8.53;6.33;;;18.70;74.70;;;;;;5031197;28;20663;-79
2021/04/18 08:21:20;;;;;;;9.17;6.70;;;19.70;74.70;;;;;;5031765;28;20568;-79
2021/04/18 08:23:46;;;;;;;9.80;5.90;;;20.70;73.10;;;;;;5032517;28;20561;-77
2021/04/18 08:26:17;;;;;;;11.27;6.33;;;21.20;69.80;;;;;;5005494;28;20619;-80
2021/04/18 08:28:55;;;;;;;11.73;6.90;;;21.20;66.00;;;;;;5032222;28;20181;-78
2021/04/18 08:31:26;;;;;;;8.20;6.40;;;21.00;63.20;;;;;;5034008;28;20576;-78
2021/04/18 08:33:53;;;;;;;9.37;6.80;;;20.60;62.70;;;;;;5033160;28;20575;-78
2021/04/18 08:36:29;;;;;;;10.93;7.17;;;20.30;61.80;;;;;;5013927;28;20600;-77
2021/04/18 08:39:01;;;;;;;11.23;8.17;;;19.90;61.30;;;;;;5032256;28;20667;-79
2021/04/18 08:41:46;;;;;;;11.07;8.60;;;19.60;60.40;;;;;;5014524;28;20667;-77
2021/04/18 08:44:23;;;;;;;12.37;8.40;;;19.20;60.00;;;;;;5052207;28;20589;-79
2021/04/18 08:47:06;;;;;;;12.77;8.20;;;18.80;59.90;;;;;;5055554;28;20637;-78
2021/04/18 08:49:35;;;;;;;13.00;10.13;;;18.50;60.10;;;;;;5052525;28;20703;-78
2021/04/18 08:52:04;;;;;;;10.50;7.70;;;18.00;60.20;;;;;;5036984;28;20164;-77
2021/04/18 08:54:32;;;;;;;10.70;7.37;;;17.90;60.80;;;;;;5071327;28;20668;-78
2021/04/18 08:57:05;;;;;;;12.40;8.20;;;17.70;60.90;;;;;;5052994;28;20780;-78
2021/04/18 08:59:31;;;;;;;9.37;6.83;;;17.60;61.00;;;;;;5071399;28;20567;-78
2021/04/18 09:01:59;;;;;;;8.65;7.53;;;17.50;61.40;;;;;;5058590;28;20574;-77
2021/04/18 09:04:26;;;;;;;8.10;6.57;;;17.40;61.70;;;;;;5070934;28;20525;-78
2021/04/18 09:06:52;;;;;;;8.40;7.30;;;17.30;61.80;;;;;;5052491;28;20626;-78
2021/04/18 09:09:19;;;;;;;11.53;8.10;;;17.30;62.00;;;;;;5052679;28;20624;-78
2021/04/18 09:11:48;;;;;;;8.53;7.03;;;17.20;62.00;;;;;;5070739;28;20270;-77
2021/04/18 09:14:36;;;;;;;8.27;6.63;;;17.20;62.10;;;;;;5054820;28;20649;-77
2021/04/18 09:17:24;;;;;;;9.60;7.77;;;17.10;61.80;;;;;;5056194;28;20619;-77
2021/04/18 09:19:59;;;;;;;10.20;7.40;;;17.10;61.70;;;;;;5016715;28;20634;-77
2021/04/18 09:22:29;;;;;;;10.63;7.75;;;16.90;61.30;;;;;;5034462;28;21225;-79
2021/04/18 09:25:18;;;;;;;9.13;6.57;;;16.90;61.10;;;;;;5000491;28;20549;-79
2021/04/18 09:27:45;;;;;;;10.00;6.70;;;16.70;61.20;;;;;;5013298;28;20770;-79
2021/04/18 09:30:13;;;;;;;12.97;7.93;;;16.60;61.30;;;;;;5032754;28;20579;-78
2021/04/18 09:32:48;;;;;;;9.00;6.00;;;16.60;61.50;;;;;;5051667;28;20603;-79
2021/04/18 09:35:18;;;;;;;9.15;6.00;;;16.50;61.80;;;;;;5045940;28;21122;-79
2021/04/18 09:37:54;;;;;;;9.68;7.13;;;16.40;61.70;;;;;;5053788;28;20196;-79
2021/04/18 09:40:23;;;;;;;12.10;8.30;;;16.40;61.60;;;;;;5063794;28;20176;-78
2021/04/18 09:42:51;;;;;;;10.50;8.93;;;16.30;61.20;;;;;;5054320;28;20211;-79
2021/04/18 09:45:19;;;;;;;10.52;7.82;;;16.20;61.20;;;;;;5036189;28;20268;-79
2021/04/18 09:47:48;;;;;;;8.38;7.30;;;16.00;61.00;;;;;;5053597;28;20246;-79
2021/04/18 09:50:17;;;;;;;12.27;7.95;;;15.90;61.30;;;;;;5054072;28;20200;-79
2021/04/18 09:52:42;;;;;;;9.65;7.10;;;15.70;61.30;;;;;;5039089;28;20187;-79
2021/04/18 09:55:11;;;;;;;8.43;7.13;;;15.60;61.40;;;;;;5058832;28;20199;-78
2021/04/18 09:57:47;;;;;;;9.38;8.30;;;15.50;61.70;;;;;;5021963;23;20206;-78
2021/04/18 10:00:30;;;;;;;7.43;6.10;;;15.40;62.20;;;;;;5011624;28;20181;-77
2021/04/18 10:03:15;;;;;;;7.28;6.57;;;15.30;62.20;;;;;;4989693;28;20171;-78
2021/04/18 10:05:46;;;;;;;7.90;6.25;;;15.30;62.60;;;;;;5011600;28;20568;-78
2021/04/18 10:08:15;;;;;;;12.98;6.80;;;15.20;63.00;;;;;;4998219;28;20206;-78
2021/04/18 10:10:41;;;;;;;7.72;6.93;;;15.10;63.10;;;;;;4993628;28;20657;-78
2021/04/18 10:13:07;;;;;;;11.10;6.50;;;15.00;63.20;;;;;;4959690;28;20514;-78
2021/04/18 10:15:33;;;;;;;7.87;6.87;;;14.90;63.20;;;;;;4994107;28;20183;-77
2021/04/18 10:18:09;;;;;;;7.33;5.90;;;14.90;63.50;;;;;;4975588;28;20676;-77
2021/04/18 10:20:36;;;;;;;7.53;5.82;;;14.80;63.80;;;;;;4960045;28;20622;-78
2021/04/18 10:23:09;;;;;;;6.85;6.18;;;14.70;64.00;;;;;;4962796;28;20179;-78
2021/04/18 10:25:37;;;;;;;10.32;6.25;;;14.60;65.00;;;;;;4992610;28;20624;-78
2021/04/18 10:28:03;;;;;;;7.20;5.88;;;14.50;64.90;;;;;;4975696;28;20611;-78
2021/04/18 10:30:29;;;;;;;7.28;6.00;;;14.50;65.30;;;;;;4976301;28;20635;-78
2021/04/18 10:32:56;;;;;;;8.68;6.15;;;14.50;66.00;;;;;;4960087;28;20191;-78
2021/04/18 10:35:22;;;;;;;11.15;7.70;;;14.40;66.00;;;;;;4993590;28;20175;-78
2021/04/18 10:37:48;;;;;;;7.97;6.03;;;14.40;67.50;;;;;;4975987;28;20539;-78
2021/04/18 10:40:16;;;;;;;7.13;5.90;;;14.40;66.80;;;;;;4993503;28;20179;-78
2021/04/18 10:42:42;;;;;;;11.23;6.22;;;14.40;67.10;;;;;;4976101;28;20187;-78
2021/04/18 10:45:09;;;;;;;8.98;6.75;;;14.40;67.50;;;;;;4976869;28;20171;-78
2021/04/18 10:47:35;;;;;;;10.38;6.55;;;14.40;67.50;;;;;;4960601;28;20199;-78
2021/04/18 10:50:03;;;;;;;8.07;6.43;;;14.40;67.80;;;;;;4976301;28;20666;-77
2021/04/18 10:52:33;;;;;;;9.13;7.15;;;14.40;68.20;;;;;;4975982;28;20673;-78
2021/04/18 10:54:59;;;;;;;9.02;7.20;;;14.40;68.70;;;;;;4993359;28;20175;-78
2021/04/18 10:57:25;;;;;;;7.30;5.87;;;14.40;69.10;;;;;;4991674;28;20555;-78
2021/04/18 10:59:51;;;;;;;8.50;7.05;;;14.50;69.60;;;;;;4976043;28;20215;-78
2021/04/18 11:02:17;;;;;;;7.07;5.60;;;14.60;69.80;;;;;;4959607;28;20198;-78
2021/04/18 11:04:43;;;;;;;10.05;6.55;;;14.70;70.00;;;;;;4993356;28;20249;-78
2021/04/18 11:07:09;;;;;;;10.70;6.23;;;14.80;70.40;;;;;;4992799;28;20297;-78
2021/04/18 11:09:38;;;;;;;8.82;6.20;;;14.90;70.80;;;;;;4993190;28;20171;-78
2021/04/18 11:12:19;;;;;;;7.60;6.03;;;15.10;71.30;;;;;;4944048;28;20186;-78
2021/04/18 11:14:46;;;;;;;11.70;6.78;;;15.30;71.90;;;;;;4975756;28;20163;-78
2021/04/18 11:17:15;;;;;;;8.20;5.85;;;15.60;72.20;;;;;;4959370;28;20207;-78
2021/04/18 11:19:41;;;;;;;7.35;6.10;;;15.80;72.20;;;;;;4975667;28;20565;-78
2021/04/18 11:22:07;;;;;;;9.60;7.20;;;16.00;72.10;;;;;;4975518;28;20249;-78
2021/04/18 11:24:33;;;;;;;8.95;7.25;;;16.20;71.10;;;;;;4975422;28;20203;-78
2021/04/18 11:26:59;;;;;;;8.13;6.47;;;16.30;70.50;;;;;;4973563;28;20219;-78
2021/04/18 11:29:25;;;;;;;9.47;7.13;;;16.30;69.80;;;;;;4974153;28;20582;-78
2021/04/18 11:31:50;;;;;;;9.87;7.03;;;16.40;69.20;;;;;;4974945;28;20545;-78
2021/04/18 11:34:16;;;;;;;10.20;8.70;;;16.40;69.20;;;;;;4957982;28;20199;-78
2021/04/18 11:36:44;;;;;;;12.10;7.90;;;16.40;69.30;;;;;;4973976;28;21269;-78
2021/04/18 11:39:10;;;;;;;10.05;7.65;;;16.50;69.30;;;;;;4958312;28;20944;-78
2021/04/18 11:41:36;;;;;;;12.93;7.80;;;16.60;69.40;;;;;;4942734;28;20176;-78
2021/04/18 11:44:04;;;;;;;8.30;7.50;;;16.70;69.40;;;;;;4972792;28;21139;-77
2021/04/18 11:46:30;;;;;;;9.80;8.30;;;16.70;69.00;;;;;;4976096;28;20583;-77
2021/04/18 11:48:56;;;;;;;10.53;7.70;;;16.70;68.70;;;;;;4978039;28;20595;-77
2021/04/18 11:51:22;;;;;;;8.00;6.53;;;16.70;68.70;;;;;;4994974;28;20578;-78
2021/04/18 11:53:48;;;;;;;7.90;6.87;;;16.70;68.50;;;;;;4995101;28;20164;-78
2021/04/18 11:56:16;;;;;;;10.73;8.53;;;16.70;68.20;;;;;;4994613;28;20186;-78
2021/04/18 11:58:42;;;;;;;8.13;6.60;;;16.80;68.20;;;;;;4977524;28;20707;-77
2021/04/18 12:01:08;;;;;;;9.03;7.13;;;16.70;67.70;;;;;;4972714;28;20194;-77
2021/04/18 12:03:33;;;;;;;7.93;6.80;;;16.70;67.80;;;;;;4974887;28;21148;-78
2021/04/18 12:05:59;;;;;;;10.90;6.80;;;16.70;68.40;;;;;;4941456;28;20274;-78
2021/04/18 12:08:25;;;;;;;9.57;7.60;;;16.70;67.20;;;;;;4973685;28;20601;-78
2021/04/18 12:10:51;;;;;;;9.23;8.30;;;16.60;67.00;;;;;;4973925;28;20578;-78
2021/04/18 12:13:17;;;;;;;9.37;7.47;;;16.60;66.70;;;;;;4956685;28;20218;-78
2021/04/18 12:15:45;;;;;;;10.17;8.43;;;16.60;66.70;;;;;;4956191;28;20602;-78
2021/04/18 12:18:13;;;;;;;8.55;7.10;;;16.50;66.70;;;;;;4973183;28;20290;-78
2021/04/18 12:20:38;;;;;;;10.60;7.65;;;16.50;66.40;;;;;;4956010;28;20538;-77
2021/04/18 12:23:04;;;;;;;10.50;8.47;;;16.50;66.70;;;;;;4955739;28;20175;-77
2021/04/18 12:25:31;;;;;;;9.63;7.40;;;16.50;67.10;;;;;;4973272;28;20176;-78
2021/04/18 12:27:57;;;;;;;8.97;8.07;;;16.50;66.20;;;;;;4938957;28;20210;-78
2021/04/18 12:30:23;;;;;;;10.23;6.67;;;16.50;66.10;;;;;;4973057;28;20571;-78
2021/04/18 12:32:49;;;;;;;9.30;7.07;;;16.50;65.90;;;;;;4972950;28;20678;-78
2021/04/18 12:35:15;;;;;;;8.63;6.60;;;16.50;65.60;;;;;;4972682;28;20563;-78
2021/04/18 12:37:45;;;;;;;10.25;6.75;;;16.50;65.50;;;;;;4972087;28;20203;-77
2021/04/18 12:40:12;;;;;;;7.03;6.17;;;16.50;65.30;;;;;;4972725;28;20174;-77
2021/04/18 12:42:37;;;;;;;8.82;7.18;;;16.50;65.20;;;;;;4972383;28;20555;-78
2021/04/18 12:45:05;;;;;;;6.80;6.10;;;16.50;65.30;;;;;;4972564;28;20170;-78
2021/04/18 12:47:31;;;;;;;6.73;6.10;;;16.60;65.40;;;;;;4938712;28;20611;-78
2021/04/18 12:49:57;;;;;;;8.80;6.20;;;16.60;65.40;;;;;;4975986;28;20898;-78
2021/04/18 12:52:23;;;;;;;8.97;6.23;;;16.70;65.50;;;;;;4958999;28;21135;-78
2021/04/18 12:54:48;;;;;;;8.88;6.90;;;16.80;65.30;;;;;;4976236;28;20179;-78
2021/04/18 12:57:17;;;;;;;6.73;6.03;;;16.90;65.30;;;;;;4958071;28;20207;-78